• Join FlightAware (Why Join?)
  • Login
  • US Flag 
Rudolph Flight #1: Arrived! 
09:38AM EST


 

Airport Tracker/Info


-or-


 

Live Flight TrackerFlight Track Log ✈ N516QS ✈ 03-Jul-2013 ✈ KBGR - KCXO

Flight Track Log - Related Links

Times and Time Zones

All times are in EDT time to prevent confusion due to time zone crossing. See the N516QS flight status page for this flight to view local times or setup timezone preferences in your user account.

Time Position Orientation Groundspeed Altitude Reporting Facility
EDT Latitude Longitude Course Direction KTS MPH feet Rate Location/Type
01:46PM 44.8358 -68.9564 272° West 225 259 6,500  Level Boston Center
01:47PM 44.8353 -69.0794 270° West 256 295 10,900 3,480 Climbing Boston Center
01:48PM 44.8328 -69.2056 268° West 295 339 13,500 2,580 Climbing Boston Center
01:49PM 44.8303 -69.3403 269° West 332 382 16,600 2,580 Climbing Boston Center
01:50PM 44.8167 -69.7717 270° West  Level FlightAware Approximate
01:50PM 44.8281 -69.4956 269° West 353 406 19,300  Level Boston Center
01:51PM 44.8233 -69.6450 268° West 375 432 22,200 1,800 Climbing Boston Center
01:52PM 44.8058 -69.7892 260° West 387 445 23,000 1,260 Climbing Boston Center
01:53PM 44.7719 -69.9486 253° West 400 460 24,800 1,920 Climbing Boston Center
01:54PM 44.7356 -70.1053 252° West 414 476 26,900 2,460 Climbing Boston Center
01:55PM 44.6992 -70.2672 253° West 432 497 29,800 2,820 Climbing Boston Center
01:56PM 44.6644 -70.4203 252° West 432 497 32,600 2,700 Climbing Boston Center
01:57PM 44.6294 -70.5733 252° West 425 489 35,200 2,400 Climbing Boston Center
01:58PM 44.5944 -70.7172 251° West 414 476 37,500 2,040 Climbing Boston Center
01:59PM 44.5611 -70.8639 252° West 407 468 39,300 1,560 Climbing Boston Center
02:00PM 44.5253 -71.0106 251° West 407 468 40,700 1,200 Climbing Boston Center
02:01PM 44.4978 -71.1303 252° West 407 468 41,800 1,140 Climbing Boston Center
02:02PM 44.4558 -71.3117 252° West 397 457 43,000 600 Climbing Boston Center
02:03PM 44.4217 -71.4606 252° West 397 457 43,000  Level Boston Center
02:04PM 44.3856 -71.6122 252° West 408 470 43,000  Level Boston Center
02:05PM 44.3469 -71.7667 251° West 413 475 43,000  Level Boston Center
02:06PM 44.3081 -71.9178 250° West 418 481 43,000  Level Boston Center
02:07PM 44.2692 -72.0719 251° West 418 481 43,000  Level Boston Center
02:08PM 44.2319 -72.2228 251° West 418 481 43,000  Level Boston Center
02:09PM 44.1925 -72.3764 250° West 424 488 43,000  Level Boston Center
02:10PM 44.1550 -72.5269 251° West 424 488 43,000  Level Boston Center
02:11PM 44.1172 -72.6831 251° West 424 488 43,000  Level Boston Center
02:12PM 44.0794 -72.8361 251° West 424 488 43,000  Level Boston Center
02:13PM 44.0411 -72.9889 251° West 424 488 43,000  Level Boston Center
02:14PM 44.0050 -73.1269 250° West 432 497 43,000  Level Boston Center
02:15PM 43.9644 -73.2794 250° West 427 491 43,000  Level Boston Center
02:16PM 43.9258 -73.4317 251° West 427 491 43,000  Level Boston Center
02:17PM 43.8869 -73.5808 250° West 427 491 43,000  Level Boston Center
02:18PM 43.8478 -73.7328 250° West 427 491 43,000  Level Boston Center
02:19PM 43.8042 -73.8958 250° West 422 486 43,000  Level Boston Center
02:20PM 43.7644 -74.0472 250° West 427 491 43,000  Level Boston Center
02:21PM 43.7228 -74.2011 250° West 427 491 43,000  Level Boston Center
02:22PM 43.6828 -74.3550 250° West 427 491 43,000  Level Boston Center
02:23PM 43.6406 -74.5058 249° West 427 491 43,000  Level Boston Center
02:24PM 43.6003 -74.6564 250° West 427 491 43,000  Level Boston Center
02:25PM 43.5550 -74.8236 250° West 434 499 43,000  Level Boston Center
02:26PM 43.5214 -74.9456 249° West 429 494 43,000  Level Boston Center
02:27PM 43.4733 -75.1294 250° West 429 494 43,000  Level Boston Center
02:28PM 43.4211 -75.3017 247° West 429 494 43,000  Level Boston Center
02:29PM 43.3842 -75.4456 251° West 442 509 43,000  Level Boston Center
02:31PM 43.2969 -75.7419 248° West 419 482 43,000  Level Cleveland Center
02:32PM 43.2531 -75.8908 248° West 419 482 43,000  Level Cleveland Center
02:33PM 43.2108 -76.0392 249° West 419 482 43,000  Level Cleveland Center
02:34PM 43.1667 -76.1878 248° West 419 482 43,000  Level Cleveland Center
02:35PM 43.1200 -76.3361 247° West 419 482 43,000  Level Cleveland Center
02:36PM 43.0753 -76.4842 248° West 424 488 43,000  Level Cleveland Center
02:37PM 43.0261 -76.6297 245° Southwest 424 488 43,000  Level Cleveland Center
02:38PM 42.9753 -76.7917 247° West 424 488 43,000  Level Cleveland Center
02:39PM 42.9281 -76.9364 246° West 424 488 43,000  Level Cleveland Center
02:40PM 42.8803 -77.0811 246° West 424 488 43,000  Level Cleveland Center
02:41PM 42.8325 -77.2281 246° West 424 488 43,000  Level Cleveland Center
02:42PM 42.7867 -77.3719 247° West 424 488 43,000  Level Cleveland Center
02:43PM 42.7364 -77.5217 245° Southwest 424 488 43,000  Level Cleveland Center
02:44PM 42.6942 -77.6564 247° West 430 495 43,000  Level Cleveland Center
02:45PM 42.6433 -77.8000 244° Southwest 430 495 43,000  Level Cleveland Center
02:46PM 42.5928 -77.9544 246° West 435 501 43,000  Level Cleveland Center
02:47PM 42.5439 -78.0975 245° Southwest 435 501 43,000  Level Cleveland Center
02:48PM 42.4947 -78.2431 245° Southwest 429 494 43,000  Level Cleveland Center
02:49PM 42.4456 -78.3883 245° Southwest 429 494 43,000  Level Cleveland Center
02:50PM 42.3961 -78.5364 246° West 429 494 43,000  Level Cleveland Center
02:51PM 42.3444 -78.6814 244° Southwest 429 494 43,000  Level Cleveland Center
02:52PM 42.2947 -78.8231 245° Southwest 429 494 43,000  Level Cleveland Center
02:53PM 42.2386 -78.9844 245° Southwest 429 494 43,000  Level Cleveland Center
02:54PM 42.1883 -79.1289 245° Southwest 429 494 43,000  Level Cleveland Center
02:55PM 42.1422 -79.2811 248° West 429 494 43,000  Level Cleveland Center
02:56PM 42.0833 -79.4194 240° Southwest 429 494 43,000  Level Cleveland Center
02:57PM 42.0303 -79.5406 239° Southwest 429 494 43,000  Level Cleveland Center
02:58PM 41.9689 -79.6783 239° Southwest 429 494 43,000  Level Cleveland Center
02:59PM 41.9011 -79.8272 239° Southwest 429 494 43,000  Level Cleveland Center
03:00PM 41.8478 -79.9533 240° Southwest 429 494 43,000  Level Cleveland Center
03:01PM 41.7881 -80.0903 240° Southwest 429 494 43,000  Level Cleveland Center
03:02PM 41.7258 -80.2242 238° Southwest 423 487 43,000  Level Cleveland Center
03:03PM 41.6658 -80.3581 239° Southwest 431 496 43,000  Level Cleveland Center
03:04PM 41.6056 -80.4942 239° Southwest 426 490 43,000  Level Cleveland Center
03:05PM 41.5453 -80.6275 239° Southwest 426 490 43,000  Level Cleveland Center
03:06PM 41.4783 -80.7717 238° Southwest 426 490 43,000  Level Cleveland Center
03:07PM 41.4197 -80.9042 239° Southwest 426 490 43,000  Level Cleveland Center
03:08PM 41.3567 -81.0394 238° Southwest 426 490 43,000  Level Cleveland Center
03:09PM 41.2956 -81.1744 239° Southwest 426 490 43,000  Level Cleveland Center
03:10PM 41.2322 -81.3064 237° Southwest 426 490 43,000  Level Cleveland Center
03:11PM 41.1792 -81.4300 240° Southwest 426 490 43,000  Level Cleveland Center
03:12PM 41.1094 -81.5669 236° Southwest 436 502 43,000  Level Cleveland Center
03:13PM 41.0433 -81.7092 238° Southwest 452 520 43,000  Level Cleveland Center
03:14PM 40.9836 -81.8428 239° Southwest 445 512 43,000  Level Cleveland Center
03:15PM 40.9175 -81.9844 238° Southwest 433 498 43,000  Level Cleveland Center
03:16PM 40.8553 -82.1178 238° Southwest 428 493 43,000  Level Cleveland Center
03:17PM 40.8069 -82.2219 239° Southwest 430 495 43,000  Level Indianapolis Center
03:18PM 40.7436 -82.3556 238° Southwest 427 491 43,000  Level Indianapolis Center
03:19PM 40.6803 -82.4886 238° Southwest 425 489 43,000  Level Indianapolis Center
03:20PM 40.6167 -82.6206 238° Southwest 425 489 43,000  Level Indianapolis Center
03:21PM 40.5522 -82.7536 238° Southwest 425 489 43,000  Level Indianapolis Center
03:22PM 40.4811 -82.9003 238° Southwest 429 494 43,000  Level Indianapolis Center
03:23PM 40.4161 -83.0336 237° Southwest 430 495 43,000  Level Indianapolis Center
03:24PM 40.3503 -83.1689 237° Southwest 436 502 43,000  Level Indianapolis Center
03:25PM 40.2836 -83.3044 237° Southwest 439 505 43,000  Level Indianapolis Center
03:26PM 40.2175 -83.4397 237° Southwest 440 506 43,000  Level Indianapolis Center
03:27PM 40.1514 -83.5756 238° Southwest 441 507 43,000  Level Indianapolis Center
03:28PM 40.0733 -83.7325 237° Southwest 442 509 43,000  Level Indianapolis Center
03:29PM 40.0064 -83.8647 237° Southwest 439 505 43,000  Level Indianapolis Center
03:30PM 39.9392 -83.9956 236° Southwest 435 501 43,000  Level Indianapolis Center
03:31PM 39.8742 -84.1258 237° Southwest 430 495 43,000  Level Indianapolis Center
03:32PM 39.8078 -84.2564 237° Southwest 431 496 43,000  Level Indianapolis Center
03:33PM 39.7422 -84.3861 237° Southwest 428 493 43,000  Level Indianapolis Center
03:34PM 39.6647 -84.5358 236° Southwest 427 491 43,000  Level Indianapolis Center
03:35PM 39.5997 -84.6653 237° Southwest 425 489 43,000  Level Indianapolis Center
03:36PM 39.5347 -84.7925 237° Southwest 423 487 43,000  Level Indianapolis Center
03:37PM 39.4664 -84.9219 236° Southwest 419 482 43,000  Level Indianapolis Center
03:39PM 39.4008 -85.0478 236° Southwest 421 484 43,000  Level Indianapolis Center
03:40PM 39.3356 -85.1747 236° Southwest 426 490 43,000  Level Indianapolis Center
03:41PM 39.2700 -85.2986 236° Southwest 419 482 43,000  Level Indianapolis Center
03:42PM 39.2058 -85.4217 236° Southwest 414 476 43,000  Level Indianapolis Center
03:43PM 39.1400 -85.5442 235° Southwest 416 479 43,000  Level Indianapolis Center
03:44PM 39.0617 -85.6933 236° Southwest 418 481 43,000  Level Indianapolis Center
03:45PM 38.9967 -85.8156 236° Southwest 416 479 43,000  Level Indianapolis Center
03:46PM 38.9319 -85.9375 236° Southwest 414 476 43,000  Level Indianapolis Center
03:47PM 38.8636 -86.0650 235° Southwest 416 479 43,000  Level Indianapolis Center
03:48PM 38.7981 -86.1869 235° Southwest 414 476 43,000  Level Indianapolis Center
03:49PM 38.7331 -86.3067 235° Southwest 410 472 43,000  Level Indianapolis Center
03:50PM 38.6683 -86.4258 235° Southwest 406 467 43,000  Level Indianapolis Center
03:51PM 38.6039 -86.5456 235° Southwest 407 468 43,000  Level Indianapolis Center
03:52PM 38.5256 -86.6881 235° Southwest 407 468 43,000  Level Indianapolis Center
03:53PM 38.4603 -86.8078 235° Southwest 409 471 43,000  Level Indianapolis Center
03:54PM 38.3967 -86.9231 235° Southwest 417 480 43,000  Level Indianapolis Center
03:55PM 38.3317 -87.0417 235° Southwest 418 481 43,000  Level Indianapolis Center
03:56PM 38.2675 -87.1586 235° Southwest 409 471 43,100 180 Climbing Indianapolis Center
03:57PM 38.1875 -87.3017 235° Southwest 416 479 43,400 360 Climbing Indianapolis Center
03:59PM 38.0874 -87.4680 233° Southwest  Level FlightAware Approximate
04:00PM 37.9875 -87.6556 233° Southwest 417 480 44,700  Level Memphis Center
04:01PM 37.9131 -87.7686 230° Southwest 424 488 45,000 120 Climbing Memphis Center
04:02PM 37.8039 -87.8247 202° Southwest 424 488 45,000  Level Memphis Center
04:03PM 37.6964 -87.8753 200° South 410 472 45,000  Level Memphis Center
04:04PM 37.5892 -87.9283 201° Southwest 415 478 45,000  Level Memphis Center
04:05PM 37.4800 -87.9814 201° Southwest 420 483 45,000  Level Memphis Center
04:06PM 37.3814 -88.0653 214° Southwest 420 483 45,000  Level Memphis Center
04:07PM 37.2914 -88.1564 219° Southwest 420 483 45,000  Level Memphis Center
04:08PM 37.1972 -88.2478 218° Southwest 430 495 45,000  Level Memphis Center
04:09PM 37.1050 -88.3358 217° Southwest 430 495 45,000  Level Memphis Center
04:10PM 37.0106 -88.4267 218° Southwest 430 495 45,000  Level Memphis Center
04:11PM 36.9161 -88.5172 217° Southwest 430 495 45,000  Level Memphis Center
04:12PM 36.8214 -88.6050 217° Southwest 430 495 45,000  Level Memphis Center
04:13PM 36.7289 -88.6950 218° Southwest 430 495 45,000  Level Memphis Center
04:14PM 36.6342 -88.7847 217° Southwest 430 495 45,000  Level Memphis Center
04:15PM 36.5417 -88.8692 216° Southwest 430 495 45,000  Level Memphis Center
04:16PM 36.4467 -88.9586 217° Southwest 430 495 45,000  Level Memphis Center
04:17PM 36.3619 -89.0350 216° Southwest 430 495 45,000  Level Memphis Center
04:18PM 36.2628 -89.1239 216° Southwest 435 501 45,000  Level Memphis Center
04:19PM 36.1678 -89.2156 218° Southwest 440 506 45,000  Level Memphis Center
04:20PM 36.0728 -89.3067 218° Southwest 435 501 45,000  Level Memphis Center
04:21PM 35.9797 -89.3925 217° Southwest 435 501 45,000  Level Memphis Center
04:22PM 35.8864 -89.4808 217° Southwest 435 501 45,000  Level Memphis Center
04:23PM 35.7933 -89.5689 218° Southwest 430 495 45,000  Level Memphis Center
04:24PM 35.7000 -89.6539 216° Southwest 430 495 45,000  Level Memphis Center
04:25PM 35.6044 -89.7442 218° Southwest 415 478 45,000  Level Memphis Center
04:26PM 35.5111 -89.8342 218° Southwest 420 483 45,000  Level Memphis Center
04:27PM 35.4175 -89.9189 216° Southwest 425 489 45,000  Level Memphis Center
04:28PM 35.3239 -90.0058 217° Southwest 430 495 45,000  Level Memphis Center
04:29PM 35.2281 -90.0953 217° Southwest 430 495 45,000  Level Memphis Center
04:30PM 35.1325 -90.1819 217° Southwest 430 495 45,000  Level Memphis Center
04:31PM 35.0386 -90.2658 216° Southwest 430 495 45,000  Level Memphis Center
04:32PM 34.9406 -90.3544 217° Southwest 430 495 45,000  Level Memphis Center
04:33PM 34.8447 -90.4406 216° Southwest 430 495 45,000  Level Memphis Center
04:34PM 34.7569 -90.5139 214° Southwest 430 495 45,000  Level Memphis Center
04:35PM 34.6567 -90.5944 213° Southwest 430 495 45,000  Level Memphis Center
04:36PM 34.5542 -90.6750 213° Southwest 436 502 45,000  Level Memphis Center
04:37PM 34.4539 -90.7550 213° Southwest 442 509 45,000  Level Memphis Center
04:38PM 34.3533 -90.8350 213° Southwest 442 509 45,000  Level Memphis Center
04:39PM 34.2508 -90.9175 214° Southwest 447 514 45,000  Level Memphis Center
04:40PM 34.1481 -90.9972 213° Southwest 447 514 45,000  Level Memphis Center
04:41PM 34.0456 -91.0792 214° Southwest 447 514 45,000  Level Memphis Center
04:42PM 33.9342 -91.1683 214° Southwest 447 514 45,000  Level Memphis Center
04:43PM 33.8336 -91.2525 215° Southwest 447 514 45,000  Level Memphis Center
04:44PM 33.7264 -91.3314 211° Southwest 445 512 45,000  Level Memphis Center
04:45PM 33.6256 -91.4100 213° Southwest 445 512 45,000  Level Memphis Center
04:47PM 33.4683 -91.5372 214° Southwest 407 468 45,000  Level Fort Worth Center
04:48PM 33.3572 -91.6192 212° Southwest 439 505 45,000  Level Fort Worth Center
04:49PM 33.2567 -91.7003 214° Southwest 445 512 45,000  Level Fort Worth Center
04:50PM 33.1397 -91.7897 213° Southwest 450 518 45,000  Level Fort Worth Center
04:51PM 33.0489 -91.8600 213° Southwest 450 518 45,000  Level Fort Worth Center
04:52PM 32.9397 -91.9408 212° Southwest 450 518 45,000  Level Fort Worth Center
04:53PM 32.8347 -92.0214 213° Southwest 450 518 45,000  Level Fort Worth Center
04:54PM 32.7297 -92.1019 213° Southwest 450 518 45,000  Level Fort Worth Center
04:56PM 32.5122 -92.2703 213° Southwest 453 521 45,000  Level Houston Center
04:57PM 32.4058 -92.3525 213° Southwest 459 528 45,000  Level Houston Center
04:58PM 32.2778 -92.4486 212° Southwest 456 525 45,000  Level Houston Center
04:59PM 32.1700 -92.5300 213° Southwest 460 529 45,000  Level Houston Center
05:00PM 32.0628 -92.6103 212° Southwest 459 528 45,000  Level Houston Center
05:01PM 31.9575 -92.6994 216° Southwest 468 539 45,000  Level Houston Center
05:02PM 31.8694 -92.8092 227° Southwest 468 539 45,000 -120 Level Houston Center
05:03PM 31.7656 -92.9425 228° Southwest 465 535 44,800 -600 Descending Houston Center
05:04PM 31.6789 -93.0508 227° Southwest 459 528 43,800 -900 Descending Houston Center
05:05PM 31.5967 -93.1561 227° Southwest 444 511 43,000 -420 Descending Houston Center
05:06PM 31.5144 -93.2606 227° Southwest 438 504 43,000  Level Houston Center
05:07PM 31.4183 -93.3814 227° Southwest 449 517 43,000 -420 Level Houston Center
05:08PM 31.3331 -93.4872 227° Southwest 450 518 42,200 -2,040 Descending Houston Center
05:09PM 31.2456 -93.5956 227° Southwest 435 501 38,900 -3,060 Descending Houston Center
05:10PM 31.1722 -93.6894 228° Southwest 401 461 35,900 -2,940 Descending Houston Center
05:11PM 31.0942 -93.7861 227° Southwest 410 472 32,900 -3,060 Descending Houston Center
05:12PM 31.0036 -93.8961 226° Southwest 423 487 29,600 -3,000 Descending Houston Center
05:13PM 30.9303 -93.9878 227° Southwest 435 501 26,800 -2,760 Descending Houston Center
05:14PM 30.8417 -94.1194 232° Southwest 434 499 23,900 -2,580 Descending Houston Center
05:15PM 30.7814 -94.2222 236° Southwest 413 475 21,500 -3,000 Descending Houston Center
05:16PM 30.6997 -94.3142 224° Southwest 390 449 17,800 -3,360 Descending Houston Center
05:18PM 30.6189 -94.3944 221° Southwest 384 442 14,600 -3,240 Descending Houston Center
05:19PM 30.5364 -94.4750 220° Southwest 323 372 11,200 -2,220 Descending Houston Center
05:20PM 30.4761 -94.5453 225° Southwest 319 367 10,100 -600 Descending Houston Center
05:21PM 30.4169 -94.6394 234° Southwest 344 396 10,000 -420 Descending Houston Center
05:22PM 30.3847 -94.7333 248° West 326 375 9,300 -1,200 Descending Houston Center
05:23PM 30.4039 -94.8192 285° West 286 329 7,500 -1,860 Descending Houston Center
05:24PM 30.4308 -94.9017 291° West 276 318 5,500 -1,800 Descending Houston Center
05:25PM 30.4619 -95.0014 290° West 277 319 3,800 -1,200 Descending Houston Center
05:26PM 30.4881 -95.0828 290° West 274 315 3,100 -360 Descending Houston Center
05:27PM 30.5028 -95.1672 281° West 271 312 3,100  Level Houston Center
05:28PM 30.5092 -95.2544 275° West 270 311 3,100 -180 Level Houston Center
05:29PM 30.5100 -95.3436 271° West 280 322 2,800 -240 Descending Houston Center
05:30PM 30.4814 -95.4214 247° West 269 310 2,600 -480 Descending Houston Center
05:31PM 30.4156 -95.4628 208° Southwest 159 183 1,800 -660 Descending Houston Center
05:32PM 30.3917 -95.4519 159° South 183 211 1,300 -600 Descending Houston Center